LFCR/RDZ METAR and TAF weather

Enter ICAO airport designator
Station Type Date Time Source
LFCR METAR 2019/05/27 09:30 UTC NOAA

LFCR 270930Z AUTO 28009KT 9999 BKN011 OVC017 13/10 Q1015 BECMG SCT015 BKN025


Station Type Date Time Source
LFCR Decoded METAR 2019/05/27 09:30 UTC NOAA

Rodez, France (LFCR) 44-24N 002-29E 580M
May 27, 2019 - 05:30 AM EDT / 2019.05.27 0930 UTC
Wind: from the W (280 degrees) at 10 MPH (9 KT):0
Visibility: greater than 7 mile(s):0
Sky conditions: overcast
Temperature: 55 F (13 C)
Dew Point: 50 F (10 C)
Relative Humidity: 81%
Pressure (altimeter): 29.97 in. Hg (1015 hPa)
ob: LFCR 270930Z AUTO 28009KT 9999 BKN011 OVC017 13/10 Q1015 BECMG SCT015 BKN025
cycle: 9

Station Type Date Time Source
LFCR TAF 2019/05/27 06:21 UTC NOAA

TAF LFCR 270500Z 2706/2806 30012KT 9999 BKN007 PROB40
TEMPO 2706/2708 2000 -DZ OVC003
BECMG 2708/2710 SCT015 BKN025 PROB40
TEMPO 2713/2717 4000 -RADZ BKN008
BECMG 2717/2719 4000 -DZ OVC005
TEMPO 2720/2806 2000 RADZ OVC003

Example: see airport list